sensor_id;sensor_type;location;lat;lon;timestamp;P1;durP1;ratioP1;P2;durP2;ratioP2
19149;SDS011;9707;49.158;8.632;2022-08-21T00:00:18;3.42;;;1.67;;
19149;SDS011;9707;49.158;8.632;2022-08-21T00:02:51;1.63;;;1.35;;
19149;SDS011;9707;49.158;8.632;2022-08-21T00:05:22;3.53;;;1.63;;
19149;SDS011;9707;49.158;8.632;2022-08-21T00:07:48;3.15;;;1.42;;
19149;SDS011;9707;49.158;8.632;2022-08-21T00:10:13;4.05;;;1.77;;
19149;SDS011;9707;49.158;8.632;2022-08-21T00:12:40;2.47;;;1.60;;
19149;SDS011;9707;49.158;8.632;2022-08-21T00:15:06;3.17;;;2.13;;
19149;SDS011;9707;49.158;8.632;2022-08-21T00:17:34;6.20;;;1.80;;
19149;SDS011;9707;49.158;8.632;2022-08-21T00:19:59;3.33;;;1.60;;
19149;SDS011;9707;49.158;8.632;2022-08-21T00:22:25;3.70;;;1.50;;
19149;SDS011;9707;49.158;8.632;2022-08-21T00:24:50;3.25;;;1.58;;
19149;SDS011;9707;49.158;8.632;2022-08-21T00:27:16;3.60;;;1.88;;
19149;SDS011;9707;49.158;8.632;2022-08-21T00:29:41;4.05;;;1.60;;
19149;SDS011;9707;49.158;8.632;2022-08-21T00:32:07;4.43;;;1.67;;
19149;SDS011;9707;49.158;8.632;2022-08-21T00:34:32;3.58;;;1.52;;
19149;SDS011;9707;49.158;8.632;2022-08-21T00:36:57;2.80;;;1.67;;
19149;SDS011;9707;49.158;8.632;2022-08-21T00:39:23;2.15;;;1.60;;
19149;SDS011;9707;49.158;8.632;2022-08-21T00:41:49;1.45;;;1.30;;
19149;SDS011;9707;49.158;8.632;2022-08-21T00:44:15;2.67;;;1.50;;
19149;SDS011;9707;49.158;8.632;2022-08-21T00:46:42;5.60;;;1.77;;
19149;SDS011;9707;49.158;8.632;2022-08-21T00:49:08;1.95;;;1.52;;
19149;SDS011;9707;49.158;8.632;2022-08-21T00:52:10;3.83;;;1.70;;
19149;SDS011;9707;49.158;8.632;2022-08-21T00:54:30;1.75;;;1.52;;
19149;SDS011;9707;49.158;8.632;2022-08-21T00:56:58;4.18;;;1.63;;
19149;SDS011;9707;49.158;8.632;2022-08-21T00:59:27;3.30;;;1.80;;
19149;SDS011;9707;49.158;8.632;2022-08-21T01:08:29;2.13;;;1.52;;
19149;SDS011;9707;49.158;8.632;2022-08-21T01:10:56;2.08;;;1.52;;
19149;SDS011;9707;49.158;8.632;2022-08-21T01:13:22;2.60;;;1.30;;
19149;SDS011;9707;49.158;8.632;2022-08-21T01:15:49;2.42;;;1.50;;
19149;SDS011;9707;49.158;8.632;2022-08-21T01:18:18;2.85;;;1.60;;
19149;SDS011;9707;49.158;8.632;2022-08-21T01:20:51;2.13;;;1.50;;
19149;SDS011;9707;49.158;8.632;2022-08-21T01:23:28;4.30;;;1.67;;
19149;SDS011;9707;49.158;8.632;2022-08-21T01:25:54;2.85;;;1.85;;
19149;SDS011;9707;49.158;8.632;2022-08-21T01:28:19;4.28;;;2.08;;
19149;SDS011;9707;49.158;8.632;2022-08-21T01:30:47;2.30;;;1.92;;
19149;SDS011;9707;49.158;8.632;2022-08-21T01:33:16;2.33;;;1.65;;
19149;SDS011;9707;49.158;8.632;2022-08-21T01:35:45;3.45;;;1.70;;
19149;SDS011;9707;49.158;8.632;2022-08-21T01:38:11;3.20;;;1.80;;
19149;SDS011;9707;49.158;8.632;2022-08-21T01:40:37;4.88;;;1.60;;
19149;SDS011;9707;49.158;8.632;2022-08-21T01:43:03;4.50;;;2.70;;
19149;SDS011;9707;49.158;8.632;2022-08-21T01:45:28;10.90;;;2.20;;
19149;SDS011;9707;49.158;8.632;2022-08-21T01:47:53;3.15;;;1.67;;
19149;SDS011;9707;49.158;8.632;2022-08-21T01:50:19;2.15;;;1.92;;
19149;SDS011;9707;49.158;8.632;2022-08-21T01:52:45;2.60;;;1.70;;
19149;SDS011;9707;49.158;8.632;2022-08-21T01:55:11;1.83;;;1.60;;
19149;SDS011;9707;49.158;8.632;2022-08-21T01:57:38;2.60;;;1.60;;
19149;SDS011;9707;49.158;8.632;2022-08-21T02:00:07;3.33;;;1.67;;
19149;SDS011;9707;49.158;8.632;2022-08-21T02:02:35;4.35;;;1.63;;
19149;SDS011;9707;49.158;8.632;2022-08-21T02:05:01;7.22;;;1.63;;
19149;SDS011;9707;49.158;8.632;2022-08-21T02:07:34;3.03;;;1.58;;
19149;SDS011;9707;49.158;8.632;2022-08-21T02:10:01;3.10;;;1.80;;
19149;SDS011;9707;49.158;8.632;2022-08-21T02:12:27;3.85;;;1.60;;
19149;SDS011;9707;49.158;8.632;2022-08-21T02:14:53;3.15;;;1.70;;
19149;SDS011;9707;49.158;8.632;2022-08-21T02:17:18;1.80;;;1.35;;
19149;SDS011;9707;49.158;8.632;2022-08-21T02:19:43;4.35;;;2.00;;
19149;SDS011;9707;49.158;8.632;2022-08-21T02:22:09;2.78;;;2.15;;
19149;SDS011;9707;49.158;8.632;2022-08-21T02:24:35;2.55;;;1.70;;
19149;SDS011;9707;49.158;8.632;2022-08-21T02:27:01;2.92;;;1.80;;
19149;SDS011;9707;49.158;8.632;2022-08-21T02:29:26;2.67;;;2.10;;
19149;SDS011;9707;49.158;8.632;2022-08-21T02:31:51;2.40;;;1.92;;
19149;SDS011;9707;49.158;8.632;2022-08-21T02:34:17;3.60;;;2.25;;
19149;SDS011;9707;49.158;8.632;2022-08-21T02:36:44;3.05;;;1.70;;
19149;SDS011;9707;49.158;8.632;2022-08-21T02:39:09;4.00;;;2.00;;
19149;SDS011;9707;49.158;8.632;2022-08-21T02:41:34;2.50;;;1.90;;
19149;SDS011;9707;49.158;8.632;2022-08-21T02:44:00;3.78;;;1.95;;
19149;SDS011;9707;49.158;8.632;2022-08-21T02:46:25;3.42;;;1.83;;
19149;SDS011;9707;49.158;8.632;2022-08-21T02:48:50;4.50;;;2.20;;
19149;SDS011;9707;49.158;8.632;2022-08-21T02:51:17;4.13;;;2.42;;
19149;SDS011;9707;49.158;8.632;2022-08-21T02:53:45;3.47;;;1.80;;
19149;SDS011;9707;49.158;8.632;2022-08-21T02:56:12;3.83;;;2.13;;
19149;SDS011;9707;49.158;8.632;2022-08-21T02:58:42;3.22;;;1.83;;
19149;SDS011;9707;49.158;8.632;2022-08-21T03:01:10;3.70;;;1.88;;
19149;SDS011;9707;49.158;8.632;2022-08-21T03:03:37;5.70;;;1.98;;
19149;SDS011;9707;49.158;8.632;2022-08-21T03:06:04;3.70;;;2.20;;
19149;SDS011;9707;49.158;8.632;2022-08-21T03:08:32;3.65;;;1.77;;
19149;SDS011;9707;49.158;8.632;2022-08-21T03:10:58;3.55;;;1.98;;
19149;SDS011;9707;49.158;8.632;2022-08-21T03:13:25;2.53;;;1.90;;
19149;SDS011;9707;49.158;8.632;2022-08-21T03:15:51;3.05;;;1.95;;
19149;SDS011;9707;49.158;8.632;2022-08-21T03:18:17;2.83;;;2.10;;
19149;SDS011;9707;49.158;8.632;2022-08-21T03:20:42;3.08;;;1.90;;
19149;SDS011;9707;49.158;8.632;2022-08-21T03:23:10;4.82;;;2.33;;
19149;SDS011;9707;49.158;8.632;2022-08-21T03:25:36;2.63;;;2.00;;
19149;SDS011;9707;49.158;8.632;2022-08-21T03:28:03;4.97;;;1.92;;
19149;SDS011;9707;49.158;8.632;2022-08-21T03:30:30;3.03;;;1.92;;
19149;SDS011;9707;49.158;8.632;2022-08-21T03:32:57;3.28;;;1.90;;
19149;SDS011;9707;49.158;8.632;2022-08-21T03:35:24;3.35;;;1.63;;
19149;SDS011;9707;49.158;8.632;2022-08-21T03:37:50;2.75;;;1.80;;
19149;SDS011;9707;49.158;8.632;2022-08-21T03:40:16;3.20;;;1.67;;
19149;SDS011;9707;49.158;8.632;2022-08-21T03:42:43;3.25;;;1.92;;
19149;SDS011;9707;49.158;8.632;2022-08-21T03:45:12;2.78;;;2.08;;
19149;SDS011;9707;49.158;8.632;2022-08-21T03:47:39;4.22;;;1.80;;
19149;SDS011;9707;49.158;8.632;2022-08-21T03:50:15;2.90;;;2.28;;
19149;SDS011;9707;49.158;8.632;2022-08-21T03:52:42;3.70;;;1.77;;
19149;SDS011;9707;49.158;8.632;2022-08-21T03:55:07;3.10;;;1.95;;
19149;SDS011;9707;49.158;8.632;2022-08-21T03:57:32;3.58;;;2.25;;
19149;SDS011;9707;49.158;8.632;2022-08-21T03:59:58;3.38;;;1.80;;
19149;SDS011;9707;49.158;8.632;2022-08-21T04:02:23;4.93;;;2.00;;
19149;SDS011;9707;49.158;8.632;2022-08-21T04:04:48;3.10;;;1.98;;
19149;SDS011;9707;49.158;8.632;2022-08-21T04:07:14;5.60;;;2.20;;
19149;SDS011;9707;49.158;8.632;2022-08-21T04:09:39;7.60;;;2.30;;
19149;SDS011;9707;49.158;8.632;2022-08-21T04:12:04;2.35;;;1.70;;
19149;SDS011;9707;49.158;8.632;2022-08-21T04:14:30;5.57;;;1.80;;
19149;SDS011;9707;49.158;8.632;2022-08-21T04:16:56;3.53;;;2.00;;
19149;SDS011;9707;49.158;8.632;2022-08-21T04:19:21;5.43;;;2.00;;
19149;SDS011;9707;49.158;8.632;2022-08-21T04:21:46;3.20;;;1.85;;
19149;SDS011;9707;49.158;8.632;2022-08-21T04:24:12;2.45;;;1.75;;
19149;SDS011;9707;49.158;8.632;2022-08-21T04:26:37;3.90;;;1.95;;
19149;SDS011;9707;49.158;8.632;2022-08-21T04:29:04;2.38;;;1.80;;
19149;SDS011;9707;49.158;8.632;2022-08-21T04:31:31;3.75;;;2.10;;
19149;SDS011;9707;49.158;8.632;2022-08-21T04:33:57;3.13;;;1.70;;
19149;SDS011;9707;49.158;8.632;2022-08-21T04:36:23;3.88;;;2.15;;
19149;SDS011;9707;49.158;8.632;2022-08-21T04:38:49;3.15;;;1.88;;
19149;SDS011;9707;49.158;8.632;2022-08-21T04:41:14;2.03;;;1.52;;
19149;SDS011;9707;49.158;8.632;2022-08-21T04:43:40;2.15;;;1.63;;
19149;SDS011;9707;49.158;8.632;2022-08-21T04:46:05;4.03;;;1.80;;
19149;SDS011;9707;49.158;8.632;2022-08-21T04:48:30;6.43;;;2.28;;
19149;SDS011;9707;49.158;8.632;2022-08-21T04:51:11;3.17;;;2.08;;
19149;SDS011;9707;49.158;8.632;2022-08-21T04:54:17;2.60;;;1.73;;
19149;SDS011;9707;49.158;8.632;2022-08-21T04:56:47;3.40;;;1.90;;
19149;SDS011;9707;49.158;8.632;2022-08-21T04:59:21;2.80;;;1.85;;
19149;SDS011;9707;49.158;8.632;2022-08-21T05:01:51;4.45;;;1.88;;
19149;SDS011;9707;49.158;8.632;2022-08-21T05:04:21;2.53;;;1.73;;
19149;SDS011;9707;49.158;8.632;2022-08-21T05:06:49;1.80;;;1.65;;
19149;SDS011;9707;49.158;8.632;2022-08-21T05:09:17;4.28;;;2.40;;
19149;SDS011;9707;49.158;8.632;2022-08-21T05:11:44;2.95;;;1.77;;
19149;SDS011;9707;49.158;8.632;2022-08-21T05:14:10;4.68;;;2.10;;
19149;SDS011;9707;49.158;8.632;2022-08-21T05:16:36;3.30;;;1.52;;
19149;SDS011;9707;49.158;8.632;2022-08-21T05:19:02;3.85;;;1.98;;
19149;SDS011;9707;49.158;8.632;2022-08-21T05:21:27;3.08;;;1.70;;
19149;SDS011;9707;49.158;8.632;2022-08-21T05:23:52;5.78;;;2.10;;
19149;SDS011;9707;49.158;8.632;2022-08-21T05:26:18;3.45;;;2.13;;
19149;SDS011;9707;49.158;8.632;2022-08-21T05:28:43;2.55;;;2.03;;
19149;SDS011;9707;49.158;8.632;2022-08-21T05:31:08;3.38;;;1.88;;
19149;SDS011;9707;49.158;8.632;2022-08-21T05:33:34;5.05;;;1.90;;
19149;SDS011;9707;49.158;8.632;2022-08-21T05:35:59;5.00;;;2.25;;
19149;SDS011;9707;49.158;8.632;2022-08-21T05:38:25;4.05;;;2.30;;
19149;SDS011;9707;49.158;8.632;2022-08-21T05:40:53;4.55;;;2.10;;
19149;SDS011;9707;49.158;8.632;2022-08-21T05:43:19;4.18;;;2.03;;
19149;SDS011;9707;49.158;8.632;2022-08-21T05:45:44;4.03;;;2.05;;
19149;SDS011;9707;49.158;8.632;2022-08-21T05:48:14;8.70;;;2.75;;
19149;SDS011;9707;49.158;8.632;2022-08-21T05:50:42;3.78;;;2.30;;
19149;SDS011;9707;49.158;8.632;2022-08-21T05:53:09;3.92;;;2.15;;
19149;SDS011;9707;49.158;8.632;2022-08-21T05:55:35;3.72;;;2.08;;
19149;SDS011;9707;49.158;8.632;2022-08-21T05:58:01;5.78;;;2.35;;
19149;SDS011;9707;49.158;8.632;2022-08-21T06:00:28;3.92;;;2.30;;
19149;SDS011;9707;49.158;8.632;2022-08-21T06:02:53;4.30;;;2.30;;
19149;SDS011;9707;49.158;8.632;2022-08-21T06:05:18;5.85;;;2.70;;
19149;SDS011;9707;49.158;8.632;2022-08-21T06:07:44;6.43;;;2.58;;
19149;SDS011;9707;49.158;8.632;2022-08-21T06:10:09;5.75;;;2.85;;
19149;SDS011;9707;49.158;8.632;2022-08-21T06:12:35;5.95;;;2.60;;
19149;SDS011;9707;49.158;8.632;2022-08-21T06:15:01;8.07;;;2.75;;
19149;SDS011;9707;49.158;8.632;2022-08-21T06:17:26;3.78;;;2.15;;
19149;SDS011;9707;49.158;8.632;2022-08-21T06:19:52;3.28;;;2.47;;
19149;SDS011;9707;49.158;8.632;2022-08-21T06:22:19;3.58;;;2.25;;
19149;SDS011;9707;49.158;8.632;2022-08-21T06:24:44;5.60;;;3.00;;
19149;SDS011;9707;49.158;8.632;2022-08-21T06:27:10;3.70;;;2.50;;
19149;SDS011;9707;49.158;8.632;2022-08-21T06:29:35;3.55;;;2.80;;
19149;SDS011;9707;49.158;8.632;2022-08-21T06:32:01;3.88;;;2.38;;
19149;SDS011;9707;49.158;8.632;2022-08-21T06:34:28;3.78;;;2.60;;
19149;SDS011;9707;49.158;8.632;2022-08-21T06:36:53;4.05;;;2.63;;
19149;SDS011;9707;49.158;8.632;2022-08-21T06:39:19;5.43;;;2.75;;
19149;SDS011;9707;49.158;8.632;2022-08-21T06:41:44;4.45;;;2.40;;
19149;SDS011;9707;49.158;8.632;2022-08-21T06:44:09;4.35;;;2.60;;
19149;SDS011;9707;49.158;8.632;2022-08-21T06:46:35;5.22;;;2.22;;
19149;SDS011;9707;49.158;8.632;2022-08-21T06:49:00;3.85;;;2.15;;
19149;SDS011;9707;49.158;8.632;2022-08-21T06:51:26;4.55;;;2.38;;
19149;SDS011;9707;49.158;8.632;2022-08-21T06:53:52;5.47;;;2.10;;
19149;SDS011;9707;49.158;8.632;2022-08-21T06:56:18;3.30;;;2.40;;
19149;SDS011;9707;49.158;8.632;2022-08-21T06:58:44;5.72;;;2.15;;
19149;SDS011;9707;49.158;8.632;2022-08-21T07:01:09;5.45;;;3.00;;
19149;SDS011;9707;49.158;8.632;2022-08-21T07:03:36;6.00;;;2.08;;
19149;SDS011;9707;49.158;8.632;2022-08-21T07:06:07;5.80;;;2.13;;
19149;SDS011;9707;49.158;8.632;2022-08-21T07:08:35;4.95;;;1.65;;
19149;SDS011;9707;49.158;8.632;2022-08-21T07:11:01;5.90;;;2.25;;
19149;SDS011;9707;49.158;8.632;2022-08-21T07:13:29;4.43;;;1.83;;
19149;SDS011;9707;49.158;8.632;2022-08-21T07:15:54;5.22;;;2.42;;
19149;SDS011;9707;49.158;8.632;2022-08-21T07:18:20;5.05;;;2.30;;
19149;SDS011;9707;49.158;8.632;2022-08-21T07:20:46;6.20;;;2.42;;
19149;SDS011;9707;49.158;8.632;2022-08-21T07:23:12;4.63;;;2.25;;
19149;SDS011;9707;49.158;8.632;2022-08-21T07:25:46;4.47;;;2.10;;
19149;SDS011;9707;49.158;8.632;2022-08-21T07:28:12;5.18;;;2.35;;
19149;SDS011;9707;49.158;8.632;2022-08-21T07:30:37;6.82;;;2.05;;
19149;SDS011;9707;49.158;8.632;2022-08-21T07:33:03;5.82;;;2.50;;
19149;SDS011;9707;49.158;8.632;2022-08-21T07:35:28;5.03;;;2.28;;
19149;SDS011;9707;49.158;8.632;2022-08-21T07:37:53;6.38;;;2.22;;
19149;SDS011;9707;49.158;8.632;2022-08-21T07:40:19;5.70;;;2.47;;
19149;SDS011;9707;49.158;8.632;2022-08-21T07:42:45;3.97;;;2.05;;
19149;SDS011;9707;49.158;8.632;2022-08-21T07:45:12;4.55;;;2.50;;
19149;SDS011;9707;49.158;8.632;2022-08-21T07:47:38;4.72;;;2.42;;
19149;SDS011;9707;49.158;8.632;2022-08-21T07:50:05;5.53;;;2.65;;
19149;SDS011;9707;49.158;8.632;2022-08-21T07:52:31;5.95;;;2.40;;
19149;SDS011;9707;49.158;8.632;2022-08-21T07:54:58;6.82;;;2.40;;
19149;SDS011;9707;49.158;8.632;2022-08-21T07:57:24;8.32;;;2.60;;
19149;SDS011;9707;49.158;8.632;2022-08-21T07:59:50;5.68;;;2.50;;
19149;SDS011;9707;49.158;8.632;2022-08-21T08:02:28;5.60;;;2.30;;
19149;SDS011;9707;49.158;8.632;2022-08-21T08:04:58;5.30;;;2.33;;
19149;SDS011;9707;49.158;8.632;2022-08-21T08:07:25;7.60;;;2.33;;
19149;SDS011;9707;49.158;8.632;2022-08-21T08:09:51;7.88;;;2.17;;
19149;SDS011;9707;49.158;8.632;2022-08-21T08:12:16;6.30;;;2.60;;
19149;SDS011;9707;49.158;8.632;2022-08-21T08:14:41;9.32;;;2.70;;
19149;SDS011;9707;49.158;8.632;2022-08-21T08:17:07;5.35;;;2.20;;
19149;SDS011;9707;49.158;8.632;2022-08-21T08:19:32;6.60;;;2.50;;
19149;SDS011;9707;49.158;8.632;2022-08-21T08:21:57;6.30;;;2.45;;
19149;SDS011;9707;49.158;8.632;2022-08-21T08:24:23;6.10;;;2.58;;
19149;SDS011;9707;49.158;8.632;2022-08-21T08:26:48;8.75;;;2.78;;
19149;SDS011;9707;49.158;8.632;2022-08-21T08:29:13;3.67;;;2.38;;
19149;SDS011;9707;49.158;8.632;2022-08-21T08:31:39;5.78;;;2.50;;
19149;SDS011;9707;49.158;8.632;2022-08-21T08:34:04;6.80;;;2.85;;
19149;SDS011;9707;49.158;8.632;2022-08-21T08:36:33;6.00;;;2.30;;
19149;SDS011;9707;49.158;8.632;2022-08-21T08:39:01;5.47;;;2.78;;
19149;SDS011;9707;49.158;8.632;2022-08-21T08:41:27;5.55;;;2.53;;
19149;SDS011;9707;49.158;8.632;2022-08-21T08:43:55;6.43;;;2.40;;
19149;SDS011;9707;49.158;8.632;2022-08-21T08:46:34;7.40;;;3.10;;
19149;SDS011;9707;49.158;8.632;2022-08-21T08:51:42;6.35;;;2.80;;
19149;SDS011;9707;49.158;8.632;2022-08-21T08:54:11;6.28;;;2.60;;
19149;SDS011;9707;49.158;8.632;2022-08-21T08:56:42;6.55;;;2.65;;
19149;SDS011;9707;49.158;8.632;2022-08-21T08:59:18;6.05;;;3.05;;
19149;SDS011;9707;49.158;8.632;2022-08-21T09:01:45;4.85;;;2.35;;
19149;SDS011;9707;49.158;8.632;2022-08-21T09:04:11;7.63;;;2.63;;
19149;SDS011;9707;49.158;8.632;2022-08-21T09:06:50;6.07;;;2.88;;
19149;SDS011;9707;49.158;8.632;2022-08-21T09:24:06;6.78;;;3.00;;
19149;SDS011;9707;49.158;8.632;2022-08-21T09:26:15;5.50;;;2.80;;
19149;SDS011;9707;49.158;8.632;2022-08-21T09:28:44;6.50;;;2.95;;
19149;SDS011;9707;49.158;8.632;2022-08-21T09:31:21;6.32;;;3.28;;
19149;SDS011;9707;49.158;8.632;2022-08-21T09:34:04;6.60;;;2.72;;
19149;SDS011;9707;49.158;8.632;2022-08-21T09:39:08;8.60;;;2.75;;
19149;SDS011;9707;49.158;8.632;2022-08-21T09:41:35;4.60;;;2.60;;
19149;SDS011;9707;49.158;8.632;2022-08-21T09:44:05;8.65;;;2.78;;
19149;SDS011;9707;49.158;8.632;2022-08-21T09:46:32;7.75;;;2.72;;
19149;SDS011;9707;49.158;8.632;2022-08-21T09:48:59;5.18;;;2.53;;
19149;SDS011;9707;49.158;8.632;2022-08-21T09:53:56;6.43;;;3.05;;
19149;SDS011;9707;49.158;8.632;2022-08-21T09:56:36;6.57;;;2.47;;
19149;SDS011;9707;49.158;8.632;2022-08-21T09:59:30;5.88;;;2.35;;
19149;SDS011;9707;49.158;8.632;2022-08-21T10:01:58;3.80;;;2.20;;
19149;SDS011;9707;49.158;8.632;2022-08-21T10:04:30;8.07;;;2.38;;
19149;SDS011;9707;49.158;8.632;2022-08-21T10:07:11;4.90;;;2.10;;
19149;SDS011;9707;49.158;8.632;2022-08-21T10:09:39;8.25;;;2.70;;
19149;SDS011;9707;49.158;8.632;2022-08-21T10:14:50;7.40;;;2.13;;
19149;SDS011;9707;49.158;8.632;2022-08-21T10:17:31;6.03;;;2.30;;
19149;SDS011;9707;49.158;8.632;2022-08-21T10:20:22;4.00;;;2.13;;
19149;SDS011;9707;49.158;8.632;2022-08-21T10:25:23;3.88;;;2.03;;
19149;SDS011;9707;49.158;8.632;2022-08-21T10:44:49;5.13;;;2.60;;
19149;SDS011;9707;49.158;8.632;2022-08-21T10:47:16;6.15;;;2.05;;
19149;SDS011;9707;49.158;8.632;2022-08-21T10:55:20;4.25;;;2.50;;
19149;SDS011;9707;49.158;8.632;2022-08-21T10:57:53;5.53;;;2.70;;
19149;SDS011;9707;49.158;8.632;2022-08-21T11:00:22;6.25;;;2.35;;
19149;SDS011;9707;49.158;8.632;2022-08-21T11:05:54;4.28;;;2.33;;
19149;SDS011;9707;49.158;8.632;2022-08-21T11:08:29;4.72;;;2.17;;
19149;SDS011;9707;49.158;8.632;2022-08-21T11:10:59;3.95;;;2.35;;
19149;SDS011;9707;49.158;8.632;2022-08-21T11:19:22;4.38;;;2.25;;
19149;SDS011;9707;49.158;8.632;2022-08-21T11:27:49;4.13;;;2.17;;
19149;SDS011;9707;49.158;8.632;2022-08-21T11:30:20;7.20;;;2.30;;
19149;SDS011;9707;49.158;8.632;2022-08-21T11:43:36;5.75;;;2.33;;
19149;SDS011;9707;49.158;8.632;2022-08-21T11:51:27;5.63;;;2.15;;
19149;SDS011;9707;49.158;8.632;2022-08-21T11:56:53;3.35;;;2.00;;
19149;SDS011;9707;49.158;8.632;2022-08-21T12:02:10;4.55;;;2.08;;
19149;SDS011;9707;49.158;8.632;2022-08-21T12:04:46;6.72;;;2.53;;
19149;SDS011;9707;49.158;8.632;2022-08-21T12:07:27;4.25;;;2.42;;
19149;SDS011;9707;49.158;8.632;2022-08-21T12:10:03;6.05;;;2.65;;
19149;SDS011;9707;49.158;8.632;2022-08-21T12:12:36;6.65;;;2.80;;
19149;SDS011;9707;49.158;8.632;2022-08-21T12:15:05;7.28;;;2.40;;
19149;SDS011;9707;49.158;8.632;2022-08-21T12:17:35;7.22;;;2.15;;
19149;SDS011;9707;49.158;8.632;2022-08-21T12:28:12;5.25;;;2.50;;
19149;SDS011;9707;49.158;8.632;2022-08-21T12:30:41;4.68;;;1.90;;
19149;SDS011;9707;49.158;8.632;2022-08-21T12:35:49;4.40;;;2.10;;
19149;SDS011;9707;49.158;8.632;2022-08-21T12:38:26;4.78;;;1.92;;
19149;SDS011;9707;49.158;8.632;2022-08-21T12:41:06;3.50;;;2.10;;
19149;SDS011;9707;49.158;8.632;2022-08-21T12:43:38;2.95;;;1.67;;
19149;SDS011;9707;49.158;8.632;2022-08-21T12:46:06;7.55;;;2.65;;
19149;SDS011;9707;49.158;8.632;2022-08-21T12:48:47;4.18;;;1.90;;
19149;SDS011;9707;49.158;8.632;2022-08-21T12:51:23;6.00;;;1.98;;
19149;SDS011;9707;49.158;8.632;2022-08-21T12:53:54;3.80;;;2.17;;
19149;SDS011;9707;49.158;8.632;2022-08-21T12:56:26;4.72;;;2.10;;
19149;SDS011;9707;49.158;8.632;2022-08-21T12:58:54;5.15;;;2.38;;
19149;SDS011;9707;49.158;8.632;2022-08-21T13:03:54;4.20;;;1.80;;
19149;SDS011;9707;49.158;8.632;2022-08-21T13:06:22;5.55;;;2.25;;
19149;SDS011;9707;49.158;8.632;2022-08-21T13:08:50;3.80;;;1.88;;
19149;SDS011;9707;49.158;8.632;2022-08-21T13:11:22;6.82;;;2.42;;
19149;SDS011;9707;49.158;8.632;2022-08-21T13:13:49;2.90;;;1.70;;
19149;SDS011;9707;49.158;8.632;2022-08-21T13:16:20;3.58;;;1.90;;
19149;SDS011;9707;49.158;8.632;2022-08-21T13:19:07;3.78;;;1.83;;
19149;SDS011;9707;49.158;8.632;2022-08-21T13:21:40;3.92;;;2.10;;
19149;SDS011;9707;49.158;8.632;2022-08-21T13:24:22;4.72;;;1.88;;
19149;SDS011;9707;49.158;8.632;2022-08-21T13:26:49;4.18;;;1.88;;
19149;SDS011;9707;49.158;8.632;2022-08-21T13:29:17;3.95;;;2.10;;
19149;SDS011;9707;49.158;8.632;2022-08-21T13:31:48;7.05;;;2.25;;
19149;SDS011;9707;49.158;8.632;2022-08-21T13:34:17;5.07;;;1.42;;
19149;SDS011;9707;49.158;8.632;2022-08-21T13:36:45;3.63;;;1.60;;
19149;SDS011;9707;49.158;8.632;2022-08-21T13:39:17;4.28;;;1.77;;
19149;SDS011;9707;49.158;8.632;2022-08-21T13:41:45;3.55;;;1.70;;
19149;SDS011;9707;49.158;8.632;2022-08-21T13:44:16;4.05;;;1.80;;
19149;SDS011;9707;49.158;8.632;2022-08-21T13:46:47;3.33;;;1.48;;
19149;SDS011;9707;49.158;8.632;2022-08-21T13:49:16;2.53;;;1.58;;
19149;SDS011;9707;49.158;8.632;2022-08-21T13:51:44;4.05;;;1.90;;
19149;SDS011;9707;49.158;8.632;2022-08-21T13:54:54;4.65;;;1.90;;
19149;SDS011;9707;49.158;8.632;2022-08-21T13:57:02;4.60;;;2.17;;
19149;SDS011;9707;49.158;8.632;2022-08-21T13:59:29;6.32;;;2.22;;
19149;SDS011;9707;49.158;8.632;2022-08-21T14:01:58;4.72;;;1.80;;
19149;SDS011;9707;49.158;8.632;2022-08-21T14:04:29;3.65;;;1.88;;
19149;SDS011;9707;49.158;8.632;2022-08-21T14:06:58;3.00;;;1.80;;
19149;SDS011;9707;49.158;8.632;2022-08-21T14:09:34;4.53;;;2.15;;
19149;SDS011;9707;49.158;8.632;2022-08-21T14:12:12;4.20;;;2.25;;
19149;SDS011;9707;49.158;8.632;2022-08-21T14:14:41;3.20;;;1.55;;
19149;SDS011;9707;49.158;8.632;2022-08-21T14:17:08;3.25;;;1.63;;
19149;SDS011;9707;49.158;8.632;2022-08-21T14:19:44;3.85;;;1.67;;
19149;SDS011;9707;49.158;8.632;2022-08-21T14:22:29;2.97;;;1.63;;
19149;SDS011;9707;49.158;8.632;2022-08-21T14:27:53;2.72;;;1.60;;
19149;SDS011;9707;49.158;8.632;2022-08-21T14:32:52;5.18;;;1.90;;
19149;SDS011;9707;49.158;8.632;2022-08-21T14:35:18;4.82;;;1.73;;
19149;SDS011;9707;49.158;8.632;2022-08-21T14:37:46;3.10;;;1.80;;
19149;SDS011;9707;49.158;8.632;2022-08-21T14:40:12;4.25;;;1.77;;
19149;SDS011;9707;49.158;8.632;2022-08-21T14:42:39;4.00;;;1.83;;
19149;SDS011;9707;49.158;8.632;2022-08-21T14:45:27;4.38;;;1.83;;
19149;SDS011;9707;49.158;8.632;2022-08-21T14:47:53;4.40;;;1.83;;
19149;SDS011;9707;49.158;8.632;2022-08-21T14:50:19;3.58;;;1.60;;
19149;SDS011;9707;49.158;8.632;2022-08-21T14:52:44;4.05;;;1.58;;
19149;SDS011;9707;49.158;8.632;2022-08-21T14:55:11;3.92;;;1.63;;
19149;SDS011;9707;49.158;8.632;2022-08-21T14:57:41;3.90;;;1.92;;
19149;SDS011;9707;49.158;8.632;2022-08-21T15:00:10;3.58;;;1.90;;
19149;SDS011;9707;49.158;8.632;2022-08-21T15:02:37;2.97;;;1.85;;
19149;SDS011;9707;49.158;8.632;2022-08-21T15:05:03;4.30;;;2.00;;
19149;SDS011;9707;49.158;8.632;2022-08-21T15:07:29;3.45;;;1.60;;
19149;SDS011;9707;49.158;8.632;2022-08-21T15:09:55;3.78;;;1.73;;
19149;SDS011;9707;49.158;8.632;2022-08-21T15:12:21;3.35;;;2.00;;
19149;SDS011;9707;49.158;8.632;2022-08-21T15:14:47;5.85;;;2.10;;
19149;SDS011;9707;49.158;8.632;2022-08-21T15:17:12;3.33;;;1.70;;
19149;SDS011;9707;49.158;8.632;2022-08-21T15:19:38;2.63;;;1.50;;
19149;SDS011;9707;49.158;8.632;2022-08-21T15:22:04;3.22;;;1.75;;
19149;SDS011;9707;49.158;8.632;2022-08-21T15:24:30;4.30;;;1.73;;
19149;SDS011;9707;49.158;8.632;2022-08-21T15:26:55;3.75;;;1.75;;
19149;SDS011;9707;49.158;8.632;2022-08-21T15:29:21;2.92;;;1.70;;
19149;SDS011;9707;49.158;8.632;2022-08-21T15:31:52;2.67;;;1.45;;
19149;SDS011;9707;49.158;8.632;2022-08-21T15:34:22;2.85;;;1.60;;
19149;SDS011;9707;49.158;8.632;2022-08-21T15:36:49;3.90;;;1.80;;
19149;SDS011;9707;49.158;8.632;2022-08-21T15:39:14;5.45;;;1.95;;
19149;SDS011;9707;49.158;8.632;2022-08-21T15:41:40;3.38;;;1.90;;
19149;SDS011;9707;49.158;8.632;2022-08-21T15:44:05;3.65;;;1.52;;
19149;SDS011;9707;49.158;8.632;2022-08-21T15:46:31;2.60;;;1.92;;
19149;SDS011;9707;49.158;8.632;2022-08-21T15:48:56;1.88;;;1.40;;
19149;SDS011;9707;49.158;8.632;2022-08-21T15:51:22;2.55;;;1.45;;
19149;SDS011;9707;49.158;8.632;2022-08-21T15:53:47;3.78;;;2.00;;
19149;SDS011;9707;49.158;8.632;2022-08-21T15:56:23;3.60;;;1.70;;
19149;SDS011;9707;49.158;8.632;2022-08-21T15:58:51;3.75;;;1.50;;
19149;SDS011;9707;49.158;8.632;2022-08-21T16:01:23;6.50;;;1.70;;
19149;SDS011;9707;49.158;8.632;2022-08-21T16:03:49;2.72;;;1.15;;
19149;SDS011;9707;49.158;8.632;2022-08-21T16:06:17;3.80;;;1.98;;
19149;SDS011;9707;49.158;8.632;2022-08-21T16:08:42;3.13;;;1.77;;
19149;SDS011;9707;49.158;8.632;2022-08-21T16:11:08;3.22;;;1.50;;
19149;SDS011;9707;49.158;8.632;2022-08-21T16:13:36;3.53;;;1.70;;
19149;SDS011;9707;49.158;8.632;2022-08-21T16:16:04;1.95;;;1.35;;
19149;SDS011;9707;49.158;8.632;2022-08-21T16:18:30;3.60;;;1.65;;
19149;SDS011;9707;49.158;8.632;2022-08-21T16:20:56;2.65;;;1.40;;
19149;SDS011;9707;49.158;8.632;2022-08-21T16:23:22;5.95;;;2.38;;
19149;SDS011;9707;49.158;8.632;2022-08-21T16:25:47;3.65;;;1.95;;
19149;SDS011;9707;49.158;8.632;2022-08-21T16:28:14;3.42;;;2.10;;
19149;SDS011;9707;49.158;8.632;2022-08-21T16:30:45;3.78;;;1.80;;
19149;SDS011;9707;49.158;8.632;2022-08-21T16:33:18;2.78;;;1.63;;
19149;SDS011;9707;49.158;8.632;2022-08-21T16:35:44;2.60;;;1.58;;
19149;SDS011;9707;49.158;8.632;2022-08-21T16:38:10;4.68;;;1.73;;
19149;SDS011;9707;49.158;8.632;2022-08-21T16:40:35;3.03;;;1.65;;
19149;SDS011;9707;49.158;8.632;2022-08-21T16:43:00;5.97;;;2.00;;
19149;SDS011;9707;49.158;8.632;2022-08-21T16:45:26;3.25;;;1.52;;
19149;SDS011;9707;49.158;8.632;2022-08-21T16:47:51;5.20;;;1.92;;
19149;SDS011;9707;49.158;8.632;2022-08-21T16:50:19;4.75;;;2.20;;
19149;SDS011;9707;49.158;8.632;2022-08-21T16:52:46;4.72;;;2.08;;
19149;SDS011;9707;49.158;8.632;2022-08-21T16:55:12;4.20;;;1.92;;
19149;SDS011;9707;49.158;8.632;2022-08-21T16:57:38;2.40;;;1.60;;